createdAt,value
2023-05-03T00:00:31.720Z,18.9692
2023-05-03T00:01:33.158Z,19.1846
2023-05-03T00:02:34.710Z,19.0769
2023-05-03T00:03:35.997Z,19.0000
2023-05-03T00:04:37.429Z,19.1692
2023-05-03T00:05:38.777Z,19.3231
2023-05-03T00:06:40.224Z,19.3077
2023-05-03T00:07:41.669Z,18.5846
2023-05-03T00:08:43.179Z,19.1077
2023-05-03T00:09:44.519Z,19.2462
2023-05-03T00:10:45.920Z,19.3077
2023-05-03T00:11:47.355Z,19.6308
2023-05-03T00:12:48.820Z,19.2615
2023-05-03T00:13:50.200Z,19.3231
2023-05-03T00:14:51.627Z,19.1538
2023-05-03T00:15:53.022Z,19.2154
2023-05-03T00:16:54.530Z,19.6000
2023-05-03T00:17:55.857Z,19.6769
2023-05-03T00:18:57.347Z,19.5538
2023-05-03T00:19:58.700Z,19.3846
2023-05-03T00:21:00.173Z,19.4769
2023-05-03T00:22:01.674Z,19.5385
2023-05-03T00:23:03.135Z,19.4462
2023-05-03T00:24:04.518Z,19.7538
2023-05-03T00:25:05.876Z,19.3692
2023-05-03T00:26:07.339Z,19.7077
2023-05-03T00:27:08.714Z,20.1077
2023-05-03T00:28:10.207Z,19.8154
2023-05-03T00:29:11.604Z,19.6923
2023-05-03T00:30:13.019Z,19.6923
2023-05-03T00:31:14.584Z,19.9231
2023-05-03T00:32:15.899Z,19.6615
2023-05-03T00:33:17.292Z,19.6769
2023-05-03T00:34:18.769Z,19.4923
2023-05-03T00:35:20.092Z,19.4615
2023-05-03T00:36:21.451Z,19.7231
2023-05-03T00:37:22.959Z,19.7692
2023-05-03T00:38:24.456Z,19.8154
2023-05-03T00:39:25.824Z,19.3846
2023-05-03T00:40:27.263Z,19.5692
2023-05-03T00:41:28.642Z,19.5846
2023-05-03T00:42:30.090Z,19.4462
2023-05-03T00:43:31.462Z,19.4769
2023-05-03T00:44:32.952Z,19.7846
2023-05-03T00:45:34.436Z,19.6462
2023-05-03T00:46:35.779Z,19.4154
2023-05-03T00:47:37.167Z,19.5692
2023-05-03T00:48:38.697Z,19.6615
2023-05-03T00:49:40.109Z,19.3692
2023-05-03T00:50:41.395Z,19.5692
2023-05-03T00:51:42.864Z,19.8615
2023-05-03T00:52:44.316Z,19.4615
2023-05-03T00:53:45.758Z,19.5385
2023-05-03T00:54:47.218Z,20.0615
2023-05-03T00:55:48.592Z,19.5077
2023-05-03T00:56:51.934Z,19.7077
2023-05-03T00:57:51.463Z,19.7077
2023-05-03T00:58:52.972Z,19.9077
2023-05-03T00:59:54.327Z,20.0462
2023-05-03T01:00:55.677Z,19.3538
2023-05-03T01:01:57.166Z,19.5077
2023-05-03T01:02:58.616Z,19.5385
2023-05-03T01:04:00.128Z,19.6769
2023-05-03T01:05:01.443Z,20.2000
2023-05-03T01:06:02.854Z,19.7692
2023-05-03T01:07:04.243Z,19.8769
2023-05-03T01:08:05.635Z,20.7846
2023-05-03T01:09:07.115Z,19.8462
2023-05-03T01:10:08.556Z,19.8462
2023-05-03T01:11:09.953Z,20.2615
2023-05-03T01:12:11.326Z,19.7538
2023-05-03T01:13:12.784Z,20.0154
2023-05-03T01:14:14.175Z,19.6769
2023-05-03T01:15:15.698Z,20.2000
2023-05-03T01:16:17.034Z,20.1231
2023-05-03T01:17:18.436Z,19.8000
2023-05-03T01:18:19.908Z,20.0308
2023-05-03T01:19:21.325Z,19.8615
2023-05-03T01:20:22.775Z,20.3692
2023-05-03T01:21:24.195Z,20.4000
2023-05-03T01:22:25.547Z,19.6769
2023-05-03T01:23:26.999Z,19.9692
2023-05-03T01:24:28.405Z,20.1077
2023-05-03T01:25:29.784Z,20.0769
2023-05-03T01:26:31.375Z,19.8769
2023-05-03T01:27:32.732Z,20.2308
2023-05-03T01:28:34.173Z,19.7077
2023-05-03T01:29:35.517Z,20.0000
2023-05-03T01:30:36.958Z,20.0308
2023-05-03T01:31:38.433Z,20.3538
2023-05-03T01:32:39.865Z,20.5077
2023-05-03T01:33:41.203Z,19.8923
2023-05-03T01:34:42.652Z,20.1385
2023-05-03T01:35:44.102Z,20.0154
2023-05-03T01:36:45.534Z,20.2000
2023-05-03T01:37:46.955Z,19.9692
2023-05-03T01:38:48.346Z,20.2615
2023-05-03T01:39:49.684Z,20.3538
2023-05-03T01:40:51.131Z,20.3077
2023-05-03T01:41:52.645Z,20.3385
2023-05-03T01:42:54.137Z,20.0308
2023-05-03T01:43:55.450Z,19.8154
2023-05-03T01:44:56.927Z,20.2000
2023-05-03T01:45:58.385Z,20.1385
2023-05-03T01:46:59.812Z,20.3538
2023-05-03T01:48:01.229Z,20.1538
2023-05-03T01:49:02.579Z,20.2308
2023-05-03T01:50:04.269Z,20.0462
2023-05-03T01:51:05.430Z,19.9385
2023-05-03T01:52:06.920Z,20.6308
2023-05-03T01:53:08.341Z,19.5538
2023-05-03T01:54:09.701Z,19.7385
2023-05-03T01:55:11.116Z,19.7231
2023-05-03T01:56:12.585Z,19.8000
2023-05-03T01:57:13.864Z,20.0154
2023-05-03T01:58:15.510Z,20.0923
2023-05-03T01:59:16.760Z,20.1692
2023-05-03T02:00:18.250Z,19.9846
2023-05-03T02:01:19.677Z,19.8154
2023-05-03T02:02:21.165Z,19.7385
2023-05-03T02:03:22.549Z,19.5077
2023-05-03T02:04:23.984Z,19.5846
2023-05-03T02:05:25.343Z,19.7077
2023-05-03T02:06:26.816Z,20.0923
2023-05-03T02:07:28.146Z,20.0923
2023-05-03T02:08:29.712Z,20.0462
2023-05-03T02:09:31.106Z,19.8615
2023-05-03T02:10:32.497Z,20.0923
2023-05-03T02:11:33.896Z,19.9538
2023-05-03T02:12:35.377Z,19.6462
2023-05-03T02:13:36.766Z,20.0923
2023-05-03T02:14:38.203Z,19.6923
2023-05-03T02:15:39.602Z,19.3846
2023-05-03T02:16:41.140Z,19.9846
2023-05-03T02:17:42.560Z,19.6154
2023-05-03T02:18:43.965Z,19.8769
2023-05-03T02:19:45.224Z,19.9385
2023-05-03T02:20:46.773Z,19.4923
2023-05-03T02:21:48.168Z,19.7538
2023-05-03T02:22:49.623Z,20.0000
2023-05-03T02:23:51.041Z,19.7692
2023-05-03T02:24:52.462Z,19.8462
2023-05-03T02:25:53.844Z,19.6462
2023-05-03T02:26:55.327Z,19.5385
2023-05-03T02:27:56.739Z,19.4154
2023-05-03T02:28:58.209Z,19.8154
2023-05-03T02:29:59.712Z,19.7385
2023-05-03T02:31:01.057Z,19.5846
2023-05-03T02:32:02.420Z,19.8154
2023-05-03T02:33:03.894Z,19.8154
2023-05-03T02:34:05.331Z,19.6000
2023-05-03T02:35:06.726Z,19.6462
2023-05-03T02:36:08.127Z,20.0154
2023-05-03T02:37:09.530Z,20.0769
2023-05-03T02:38:11.045Z,19.8615
2023-05-03T02:39:12.443Z,19.6769
2023-05-03T02:40:13.880Z,19.5231
2023-05-03T02:41:15.264Z,19.6462
2023-05-03T02:42:16.723Z,19.7077
2023-05-03T02:43:18.165Z,20.0769
2023-05-03T02:44:19.618Z,19.6462
2023-05-03T02:45:21.011Z,19.6462
2023-05-03T02:46:22.396Z,19.9231
2023-05-03T02:47:23.744Z,19.2923
2023-05-03T02:48:25.269Z,19.6154
2023-05-03T02:49:26.660Z,20.2923
2023-05-03T02:50:28.149Z,19.4769
2023-05-03T02:51:29.482Z,19.6615
2023-05-03T02:52:30.976Z,19.9538
2023-05-03T02:53:32.391Z,19.9077
2023-05-03T02:54:33.796Z,19.5846
2023-05-03T02:55:35.220Z,19.8923
2023-05-03T02:56:36.613Z,20.0615
2023-05-03T02:57:38.282Z,20.0923
2023-05-03T02:58:39.477Z,19.8923
2023-05-03T02:59:40.912Z,19.6154
2023-05-03T03:00:42.401Z,20.2154
2023-05-03T03:01:43.821Z,19.8462
2023-05-03T03:02:45.244Z,19.9538
2023-05-03T03:03:46.641Z,19.8000
2023-05-03T03:04:48.076Z,20.0000
2023-05-03T03:05:49.458Z,19.5385
2023-05-03T03:06:51.007Z,19.9231
2023-05-03T03:07:52.183Z,19.8615
2023-05-03T03:08:53.714Z,19.9385
2023-05-03T03:09:55.230Z,20.0923
2023-05-03T03:10:56.630Z,19.1385
2023-05-03T03:11:58.003Z,19.5231
2023-05-03T03:12:59.338Z,19.5385
2023-05-03T03:14:00.822Z,19.9231
2023-05-03T03:15:02.352Z,19.6769
2023-05-03T03:16:03.772Z,19.5077
2023-05-03T03:17:05.199Z,19.5692
2023-05-03T03:18:06.493Z,19.6769
2023-05-03T03:19:08.008Z,19.9385
2023-05-03T03:20:09.424Z,20.1692
2023-05-03T03:21:10.853Z,19.5231
2023-05-03T03:22:12.263Z,19.4615
2023-05-03T03:23:13.673Z,20.0462
2023-05-03T03:24:15.068Z,19.6308
2023-05-03T03:25:16.423Z,19.5692
2023-05-03T03:26:17.965Z,19.8769
2023-05-03T03:27:19.423Z,19.3231
2023-05-03T03:28:20.828Z,19.6462
2023-05-03T03:29:22.228Z,19.4154
2023-05-03T03:30:23.627Z,20.0000
2023-05-03T03:31:25.100Z,19.4000
2023-05-03T03:32:26.556Z,19.3385
2023-05-03T03:33:27.979Z,19.8308
2023-05-03T03:34:29.367Z,19.1846
2023-05-03T03:35:30.824Z,19.6462
2023-05-03T03:36:32.277Z,19.4000
2023-05-03T03:37:33.715Z,19.3846
2023-05-03T03:38:34.987Z,19.5692
2023-05-03T03:39:36.453Z,20.1077
2023-05-03T03:40:37.926Z,19.3538
2023-05-03T03:41:39.354Z,19.2154
2023-05-03T03:42:40.789Z,19.0615
2023-05-03T03:43:42.207Z,19.1385
2023-05-03T03:44:43.571Z,19.5692
2023-05-03T03:45:44.995Z,19.5077
2023-05-03T03:46:46.498Z,19.4923
2023-05-03T03:47:47.974Z,19.6462
2023-05-03T03:48:49.371Z,19.2462
2023-05-03T03:49:50.723Z,19.4615
2023-05-03T03:50:52.149Z,19.5385
2023-05-03T03:51:53.456Z,19.4923
2023-05-03T03:52:55.050Z,19.5692
2023-05-03T03:53:56.468Z,19.3077
2023-05-03T03:54:57.912Z,19.4154
2023-05-03T03:55:59.259Z,19.9538
2023-05-03T03:57:00.736Z,18.9846
2023-05-03T03:58:02.160Z,19.4769
2023-05-03T03:59:03.726Z,19.4154
2023-05-03T04:00:05.101Z,19.0308
2023-05-03T04:01:06.431Z,19.1538
2023-05-03T04:02:07.857Z,19.1385
2023-05-03T04:03:09.526Z,19.2462
2023-05-03T04:04:10.741Z,19.2615
2023-05-03T04:05:12.145Z,19.1846
2023-05-03T04:06:13.585Z,19.2154
2023-05-03T04:07:15.001Z,19.5538
2023-05-03T04:08:16.411Z,19.3692
2023-05-03T04:09:17.850Z,19.7692
2023-05-03T04:10:19.145Z,19.7846
2023-05-03T04:11:20.685Z,19.2308
2023-05-03T04:12:22.052Z,19.9385
2023-05-03T04:13:23.573Z,19.5077
2023-05-03T04:14:24.918Z,19.4000
2023-05-03T04:15:26.380Z,19.2923
2023-05-03T04:16:27.777Z,20.2615
2023-05-03T04:17:29.217Z,19.7538
2023-05-03T04:18:30.657Z,20.6000
2023-05-03T04:19:32.098Z,20.2154
2023-05-03T04:20:33.568Z,19.8308
2023-05-03T04:21:34.886Z,19.4769
2023-05-03T04:22:36.412Z,19.8769
2023-05-03T04:23:37.840Z,19.4462
2023-05-03T04:24:39.319Z,19.0889
2023-05-03T04:25:40.704Z,19.2154
2023-05-03T04:26:42.159Z,19.1385
2023-05-03T04:27:43.565Z,19.6154
2023-05-03T04:28:45.053Z,19.5692
2023-05-03T04:29:46.533Z,19.4615
2023-05-03T04:30:47.873Z,19.8154
2023-05-03T04:31:49.214Z,19.7077
2023-05-03T04:32:50.705Z,19.4000
2023-05-03T04:33:52.110Z,19.9077
2023-05-03T04:34:54.052Z,19.7231
2023-05-03T04:35:55.015Z,19.6462
2023-05-03T04:36:56.352Z,19.8462
2023-05-03T04:37:57.872Z,19.7231
2023-05-03T04:38:59.231Z,19.6308
2023-05-03T04:40:01.065Z,19.6000
2023-05-03T04:41:02.037Z,19.0308
2023-05-03T04:42:03.565Z,19.3231
2023-05-03T04:43:04.893Z,19.2308
2023-05-03T04:44:06.303Z,19.4000
2023-05-03T04:45:07.794Z,19.4462
2023-05-03T04:46:09.242Z,19.3538
2023-05-03T04:47:10.592Z,19.5231
2023-05-03T04:48:12.072Z,19.8769
2023-05-03T04:49:13.521Z,19.9538
2023-05-03T04:50:14.896Z,20.1385
2023-05-03T04:51:16.379Z,19.9692
2023-05-03T04:52:17.757Z,19.5538
2023-05-03T04:53:19.211Z,20.3846
2023-05-03T04:54:20.635Z,19.7231
2023-05-03T04:55:22.105Z,19.3231
2023-05-03T04:56:23.522Z,19.6000
2023-05-03T04:57:24.926Z,20.4308
2023-05-03T04:58:26.190Z,20.8462
2023-05-03T04:59:27.712Z,19.7385
2023-05-03T05:00:29.195Z,20.2462
2023-05-03T05:01:30.645Z,20.4154
2023-05-03T05:02:31.993Z,20.7846
2023-05-03T05:03:33.474Z,20.0308
2023-05-03T05:04:34.890Z,20.2462
2023-05-03T05:05:36.310Z,20.4154
2023-05-03T05:06:37.731Z,20.6462
2023-05-03T05:07:39.154Z,19.9385
2023-05-03T05:08:40.618Z,19.4462
2023-05-03T05:09:41.970Z,20.5538
2023-05-03T05:10:43.471Z,19.6923
2023-05-03T05:11:44.950Z,19.5538
2023-05-03T05:12:46.336Z,19.9692
2023-05-03T05:13:47.766Z,19.4923
2023-05-03T05:14:49.173Z,19.5692
2023-05-03T05:15:50.555Z,19.2923
2023-05-03T05:16:52.061Z,19.5077
2023-05-03T05:17:53.466Z,19.8923
2023-05-03T05:18:54.838Z,19.8154
2023-05-03T05:19:56.164Z,19.4000
2023-05-03T05:20:57.735Z,18.8154
2023-05-03T05:21:59.126Z,18.7385
2023-05-03T05:23:00.546Z,18.1538
2023-05-03T05:24:02.009Z,18.1231
2023-05-03T05:25:03.423Z,17.8615
2023-05-03T05:26:04.922Z,17.8615
2023-05-03T05:27:06.277Z,18.4615
2023-05-03T05:28:07.667Z,19.0923
2023-05-03T05:29:09.122Z,19.3077
2023-05-03T05:30:10.522Z,18.9692
2023-05-03T05:31:12.042Z,18.7692
2023-05-03T05:32:13.406Z,19.2923
2023-05-03T05:33:16.591Z,18.5538
2023-05-03T05:34:16.150Z,18.8769
2023-05-03T05:35:17.706Z,18.8769
2023-05-03T05:36:19.096Z,19.2000
2023-05-03T05:37:20.563Z,18.9692
2023-05-03T05:38:21.980Z,19.3077
2023-05-03T05:39:23.344Z,18.3385
2023-05-03T05:40:24.782Z,18.9538
2023-05-03T05:41:26.262Z,19.0462
2023-05-03T05:42:27.638Z,19.0462
2023-05-03T05:43:29.031Z,18.2923
2023-05-03T05:44:30.468Z,19.2308
2023-05-03T05:45:31.889Z,18.0308
2023-05-03T05:46:33.474Z,18.9692
2023-05-03T05:47:34.851Z,18.9385
2023-05-03T05:48:36.270Z,18.5385
2023-05-03T05:49:37.588Z,18.8615
2023-05-03T05:50:39.054Z,18.7231
2023-05-03T05:51:40.495Z,19.1385
2023-05-03T05:52:41.938Z,18.9692
2023-05-03T05:53:43.242Z,18.8615
2023-05-03T05:54:44.826Z,18.7077
2023-05-03T05:55:46.162Z,18.7692
2023-05-03T05:56:47.622Z,19.0154
2023-05-03T05:57:49.058Z,19.0615
2023-05-03T05:58:50.549Z,18.6154
2023-05-03T05:59:52.604Z,18.4000
2023-05-03T06:00:53.403Z,18.7077
2023-05-03T06:01:54.780Z,18.6769
2023-05-03T06:02:56.173Z,18.9385
2023-05-03T06:03:57.584Z,19.1538
2023-05-03T06:04:59.128Z,18.9077
2023-05-03T06:06:00.440Z,18.8923
2023-05-03T06:07:01.839Z,19.0154
2023-05-03T06:08:03.234Z,18.8154
2023-05-03T06:09:16.650Z,18.5846
2023-05-03T06:10:06.331Z,18.8500
2023-05-03T06:11:07.554Z,18.4923
2023-05-03T06:12:08.953Z,18.6308
2023-05-03T06:13:10.411Z,18.4615
2023-05-03T06:14:11.831Z,18.2462
2023-05-03T06:15:13.217Z,18.3077
2023-05-03T06:16:14.710Z,18.6462
2023-05-03T06:17:16.195Z,19.0462
2023-05-03T06:18:17.519Z,18.9692
2023-05-03T06:19:19.038Z,18.1231
2023-05-03T06:20:20.442Z,18.7692
2023-05-03T06:21:21.794Z,18.4308
2023-05-03T06:22:23.222Z,18.9846
2023-05-03T06:23:24.596Z,18.6462
2023-05-03T06:24:26.128Z,18.2308
2023-05-03T06:25:27.580Z,19.5385
2023-05-03T06:26:28.938Z,19.2615
2023-05-03T06:27:30.411Z,17.5538
2023-05-03T06:28:31.792Z,17.1846
2023-05-03T06:29:33.268Z,16.3231
2023-05-03T06:30:34.691Z,19.2000
2023-05-03T06:31:36.140Z,16.6769
2023-05-03T06:32:37.487Z,17.3231
2023-05-03T06:33:38.941Z,15.7692
2023-05-03T06:34:40.359Z,14.4154
2023-05-03T06:35:41.817Z,12.7077
2023-05-03T06:36:43.254Z,11.2000
2023-05-03T06:37:44.654Z,11.4308
2023-05-03T06:38:46.015Z,11.1538
2023-05-03T06:39:47.461Z,12.1538
2023-05-03T06:40:48.922Z,9.5692
2023-05-03T06:41:50.352Z,7.8923
2023-05-03T06:42:51.765Z,5.7385
2023-05-03T06:43:53.221Z,3.2615
2023-05-03T06:44:54.723Z,1.9692
2023-05-03T06:45:56.103Z,1.1846
2023-05-03T06:46:57.506Z,1.0000
2023-05-03T06:47:58.934Z,1.2000
2023-05-03T06:49:00.337Z,1.5846
2023-05-03T06:50:01.932Z,2.1538
2023-05-03T06:51:03.204Z,2.8923
2023-05-03T06:52:04.564Z,3.5692
2023-05-03T06:53:06.033Z,4.1692
2023-05-03T06:54:07.369Z,4.2308
2023-05-03T06:55:08.821Z,4.2769
2023-05-03T06:56:10.165Z,4.4462
2023-05-03T06:57:11.787Z,4.5077
2023-05-03T06:58:13.106Z,5.0154
2023-05-03T06:59:14.560Z,5.3231
2023-05-03T07:00:15.991Z,4.7385
2023-05-03T07:01:17.462Z,4.6923
2023-05-03T07:02:18.813Z,5.0000
2023-05-03T07:03:20.339Z,5.2923
2023-05-03T07:04:21.841Z,6.2615
